Time;durP1;ratioP1;P1;durP2;ratioP2;P2;SDS_P1;SDS_P2;PMS_P1;PMS_P2;Temp;Humidity;BMP_temperature;BMP_pressure;BME280_temperature;BME280_humidity;BME280_pressure;Samples;Min_cycle;Max_cycle;Signal;HPM_P1;HPM_P2
2022/01/18 00:00:18;;;;;;;76.68;40.38;;;;;;;;;;5026460;28;20041;-74
2022/01/18 00:02:44;;;;;;;68.10;38.85;;;;;;;;;;5070679;28;20626;-74
2022/01/18 00:05:15;;;;;;;73.55;41.53;;;;;;;;;;5090154;28;20107;-74
2022/01/18 00:07:42;;;;;;;82.65;46.75;;;;;;;;;;5090589;28;20028;-74
2022/01/18 00:10:08;;;;;;;90.45;46.13;;;;;;;;;;5091187;28;20051;-74
2022/01/18 00:23:06;;;;;;;78.75;39.22;;;;;;;;;;5074114;28;20039;-74
2022/01/18 00:25:35;;;;;;;72.43;38.50;;;;;;;;;;5091030;28;20510;-74
2022/01/18 00:28:01;;;;;;;65.60;36.47;;;;;;;;;;5090445;28;20039;-74
2022/01/18 00:33:26;;;;;;;61.10;34.60;;;;;;;;;;5087934;28;20047;-74
2022/01/18 00:36:00;;;;;;;80.13;42.95;;;;;;;;;;5082398;28;20447;-74
2022/01/18 00:38:33;;;;;;;68.65;36.45;;;;;;;;;;5088020;28;20051;-74
2022/01/18 00:41:00;;;;;;;76.30;39.95;;;;;;;;;;5077989;28;20458;-74
2022/01/18 00:43:26;;;;;;;73.70;39.10;;;;;;;;;;5090131;28;20035;-74
2022/01/18 00:45:52;;;;;;;67.88;39.13;;;;;;;;;;5089708;28;20119;-74
2022/01/18 00:48:18;;;;;;;73.07;41.15;;;;;;;;;;5087084;28;20036;-74
2022/01/18 00:50:45;;;;;;;63.17;33.20;;;;;;;;;;5076572;28;20367;-74
2022/01/18 00:53:15;;;;;;;66.88;33.80;;;;;;;;;;5078099;28;20032;-74
2022/01/18 00:56:05;;;;;;;64.47;35.42;;;;;;;;;;5085314;28;20036;-74
2022/01/18 00:58:31;;;;;;;63.13;34.78;;;;;;;;;;5074666;28;20067;-74
2022/01/18 01:00:57;;;;;;;57.28;33.13;;;;;;;;;;5089988;28;20036;-74
2022/01/18 01:03:23;;;;;;;59.88;33.53;;;;;;;;;;5070723;28;20032;-74
2022/01/18 01:05:49;;;;;;;59.92;33.00;;;;;;;;;;5070387;28;20043;-74
2022/01/18 01:08:15;;;;;;;61.75;33.40;;;;;;;;;;5069930;28;20115;-74
2022/01/18 01:10:41;;;;;;;65.15;36.65;;;;;;;;;;5079206;28;20107;-75
2022/01/18 01:13:08;;;;;;;66.88;37.22;;;;;;;;;;5069791;28;20056;-74
2022/01/18 01:15:44;;;;;;;53.40;29.48;;;;;;;;;;5084571;28;20028;-75
2022/01/18 01:32:36;;;;;;;57.80;33.28;;;;;;;;;;5081503;28;20574;-74
2022/01/18 01:45:34;;;;;;;54.05;29.92;;;;;;;;;;5074927;28;20036;-75
2022/01/18 01:48:01;;;;;;;58.20;29.67;;;;;;;;;;5071313;28;20048;-74
2022/01/18 01:50:38;;;;;;;51.22;29.25;;;;;;;;;;5074559;28;20028;-74
2022/01/18 01:53:04;;;;;;;54.33;31.05;;;;;;;;;;5080328;28;20081;-74
2022/01/18 01:55:30;;;;;;;52.15;29.38;;;;;;;;;;5081595;28;20032;-74
2022/01/18 01:57:56;;;;;;;57.00;32.10;;;;;;;;;;5070971;28;20111;-74
2022/01/18 02:00:23;;;;;;;51.10;28.55;;;;;;;;;;5086936;28;20596;-74
2022/01/18 02:02:49;;;;;;;53.63;29.20;;;;;;;;;;5085378;28;20055;-74
2022/01/18 02:05:16;;;;;;;53.25;30.60;;;;;;;;;;5080466;28;20111;-74
2022/01/18 02:07:42;;;;;;;64.78;34.30;;;;;;;;;;5087685;28;20044;-74
2022/01/18 02:10:10;;;;;;;66.65;37.13;;;;;;;;;;5082832;28;20039;-74
2022/01/18 02:12:36;;;;;;;62.53;33.25;;;;;;;;;;5085187;28;20124;-75
2022/01/18 02:15:11;;;;;;;66.03;35.35;;;;;;;;;;5088866;28;20637;-74
2022/01/18 02:23:20;;;;;;;64.80;33.92;;;;;;;;;;5086183;28;20050;-74
2022/01/18 02:25:46;;;;;;;57.42;31.23;;;;;;;;;;5072702;28;20116;-74
2022/01/18 02:28:13;;;;;;;68.63;36.85;;;;;;;;;;5087233;28;20058;-74
2022/01/18 02:30:39;;;;;;;69.07;36.42;;;;;;;;;;5092684;28;20039;-74
2022/01/18 02:33:06;;;;;;;76.00;38.97;;;;;;;;;;5077627;28;20037;-74
2022/01/18 02:35:35;;;;;;;81.20;42.80;;;;;;;;;;5072474;28;20476;-74
2022/01/18 02:38:02;;;;;;;78.90;40.85;;;;;;;;;;5088560;28;20028;-74
2022/01/18 02:40:29;;;;;;;69.38;36.92;;;;;;;;;;5073912;28;20040;-75
2022/01/18 02:42:59;;;;;;;60.03;31.30;;;;;;;;;;5077873;28;20033;-74
2022/01/18 02:45:25;;;;;;;54.17;28.85;;;;;;;;;;5072852;28;20032;-74
2022/01/18 02:47:51;;;;;;;54.22;31.20;;;;;;;;;;5083203;28;20085;-74
2022/01/18 02:50:22;;;;;;;52.83;30.10;;;;;;;;;;5092189;28;20458;-74
2022/01/18 02:52:48;;;;;;;50.45;29.38;;;;;;;;;;5091936;28;20051;-74
2022/01/18 02:55:14;;;;;;;55.42;29.27;;;;;;;;;;5079500;28;20029;-74
2022/01/18 02:58:03;;;;;;;54.13;30.55;;;;;;;;;;5086237;28;20067;-74
2022/01/18 03:00:43;;;;;;;55.70;30.08;;;;;;;;;;5072319;28;20066;-74
2022/01/18 03:03:14;;;;;;;57.25;32.28;;;;;;;;;;5092726;28;20386;-74
2022/01/18 03:05:45;;;;;;;48.20;28.20;;;;;;;;;;5092572;28;20040;-74
2022/01/18 03:08:12;;;;;;;39.45;22.80;;;;;;;;;;5092496;28;20040;-75
2022/01/18 03:10:38;;;;;;;34.80;21.65;;;;;;;;;;5091867;28;20245;-74
2022/01/18 03:13:05;;;;;;;36.30;21.40;;;;;;;;;;5091835;28;20040;-74
2022/01/18 03:15:31;;;;;;;30.05;18.20;;;;;;;;;;5080791;28;20043;-74
2022/01/18 03:17:57;;;;;;;31.00;19.05;;;;;;;;;;5092548;28;20040;-75
2022/01/18 03:20:23;;;;;;;34.30;18.65;;;;;;;;;;5089522;28;20027;-74
2022/01/18 03:22:50;;;;;;;32.47;18.52;;;;;;;;;;5072086;28;20047;-74
2022/01/18 03:25:40;;;;;;;27.80;16.40;;;;;;;;;;5081824;28;20051;-75
2022/01/18 03:28:08;;;;;;;34.85;19.45;;;;;;;;;;5092548;28;20382;-75
2022/01/18 03:30:42;;;;;;;32.75;19.65;;;;;;;;;;5089060;28;20082;-75
2022/01/18 03:33:14;;;;;;;35.03;20.05;;;;;;;;;;5085488;28;20040;-74
2022/01/18 03:35:41;;;;;;;38.85;22.77;;;;;;;;;;5092091;28;20124;-74
2022/01/18 03:38:08;;;;;;;38.67;24.45;;;;;;;;;;5091629;28;20046;-74
2022/01/18 03:40:34;;;;;;;36.80;22.10;;;;;;;;;;5090609;28;20355;-74
2022/01/18 03:43:01;;;;;;;44.75;26.02;;;;;;;;;;5091632;28;20036;-74
2022/01/18 03:45:31;;;;;;;41.92;26.05;;;;;;;;;;5092098;28;20024;-74
2022/01/18 03:48:00;;;;;;;50.22;27.23;;;;;;;;;;5083951;28;20040;-74
2022/01/18 03:50:26;;;;;;;44.83;25.95;;;;;;;;;;5091371;28;20548;-74
2022/01/18 03:52:52;;;;;;;45.88;26.10;;;;;;;;;;5091289;28;20065;-74
2022/01/18 03:55:19;;;;;;;49.15;26.73;;;;;;;;;;5090643;28;20807;-74
2022/01/18 03:57:46;;;;;;;47.92;25.02;;;;;;;;;;5071283;28;20067;-74
2022/01/18 04:00:14;;;;;;;43.95;25.48;;;;;;;;;;5088291;28;20497;-74
2022/01/18 04:02:40;;;;;;;45.38;26.27;;;;;;;;;;5084928;28;20028;-74
2022/01/18 04:05:06;;;;;;;48.97;27.48;;;;;;;;;;5091726;28;20085;-74
2022/01/18 04:07:32;;;;;;;52.97;30.65;;;;;;;;;;5091542;28;20043;-74
2022/01/18 04:09:58;;;;;;;46.28;27.13;;;;;;;;;;5091202;28;20039;-74
2022/01/18 04:12:24;;;;;;;51.35;27.80;;;;;;;;;;5086492;28;20036;-74
2022/01/18 04:14:50;;;;;;;47.40;28.25;;;;;;;;;;5081542;28;20032;-74
2022/01/18 04:27:53;;;;;;;48.20;26.38;;;;;;;;;;5077481;28;20039;-75
2022/01/18 04:30:20;;;;;;;45.22;27.70;;;;;;;;;;5074637;28;20043;-74
2022/01/18 04:32:46;;;;;;;47.63;28.60;;;;;;;;;;5071310;28;20395;-74
2022/01/18 04:35:12;;;;;;;48.78;28.75;;;;;;;;;;5089887;28;20050;-74
2022/01/18 04:37:38;;;;;;;45.72;27.27;;;;;;;;;;5090763;28;20097;-74
2022/01/18 04:40:12;;;;;;;46.75;28.75;;;;;;;;;;5078704;28;20029;-74
2022/01/18 04:43:03;;;;;;;51.50;27.70;;;;;;;;;;5070010;28;20032;-75
2022/01/18 04:48:29;;;;;;;50.22;28.77;;;;;;;;;;5082291;28;20055;-74
2022/01/18 04:50:55;;;;;;;46.25;26.70;;;;;;;;;;5089766;28;20462;-74
2022/01/18 04:53:21;;;;;;;50.80;29.52;;;;;;;;;;5090476;28;20078;-74
2022/01/18 04:55:54;;;;;;;51.20;29.52;;;;;;;;;;5077774;28;20035;-74
2022/01/18 04:58:20;;;;;;;49.03;29.25;;;;;;;;;;5076009;28;20040;-75
2022/01/18 05:00:46;;;;;;;45.40;26.50;;;;;;;;;;5088938;28;20069;-75
2022/01/18 05:03:12;;;;;;;49.45;29.42;;;;;;;;;;5078012;28;20032;-74
2022/01/18 05:05:38;;;;;;;59.35;37.67;;;;;;;;;;5079276;28;20034;-74
2022/01/18 05:08:06;;;;;;;57.38;36.20;;;;;;;;;;5069929;28;20040;-73
2022/01/18 05:10:32;;;;;;;66.15;39.47;;;;;;;;;;5073345;28;20116;-74
2022/01/18 05:13:10;;;;;;;55.97;37.28;;;;;;;;;;5069308;28;20045;-74
2022/01/18 05:15:44;;;;;;;57.42;33.38;;;;;;;;;;5086483;28;20705;-74
2022/01/18 05:23:39;;;;;;;44.22;26.83;;;;;;;;;;5071712;28;20125;-74
2022/01/18 05:26:13;;;;;;;52.78;31.65;;;;;;;;;;5089090;28;20055;-74
2022/01/18 05:28:39;;;;;;;57.95;34.95;;;;;;;;;;5085334;28;20031;-74
2022/01/18 05:31:05;;;;;;;48.10;30.83;;;;;;;;;;5080927;28;20028;-75
2022/01/18 05:33:31;;;;;;;43.53;27.58;;;;;;;;;;5071380;28;20036;-74
2022/01/18 05:35:57;;;;;;;44.05;25.05;;;;;;;;;;5073593;28;20039;-74
2022/01/18 05:38:23;;;;;;;38.42;23.92;;;;;;;;;;5074548;28;20028;-74
2022/01/18 05:40:50;;;;;;;42.80;24.58;;;;;;;;;;5072568;28;20099;-74
2022/01/18 05:43:16;;;;;;;40.95;26.83;;;;;;;;;;5088793;28;20431;-75
2022/01/18 05:45:42;;;;;;;47.65;32.80;;;;;;;;;;5084187;28;20028;-74
2022/01/18 05:48:08;;;;;;;49.03;30.35;;;;;;;;;;5089303;28;20032;-74
2022/01/18 05:50:35;;;;;;;50.25;30.30;;;;;;;;;;5089460;28;20670;-74
2022/01/18 05:53:01;;;;;;;47.60;29.38;;;;;;;;;;5088759;28;20036;-74
2022/01/18 05:55:27;;;;;;;42.65;26.13;;;;;;;;;;5077094;28;20031;-74
2022/01/18 05:57:53;;;;;;;39.28;25.85;;;;;;;;;;5086002;28;20028;-75
2022/01/18 06:00:22;;;;;;;38.53;25.73;;;;;;;;;;5069334;28;20055;-75
2022/01/18 06:08:06;;;;;;;37.53;22.40;;;;;;;;;;5080172;28;20051;-74
2022/01/18 06:10:32;;;;;;;36.97;21.48;;;;;;;;;;5083509;28;20040;-74
2022/01/18 06:13:01;;;;;;;45.45;26.33;;;;;;;;;;5082696;28;20038;-74
2022/01/18 06:15:27;;;;;;;73.22;37.58;;;;;;;;;;5079107;28;20501;-74
2022/01/18 06:17:53;;;;;;;65.95;34.30;;;;;;;;;;5082101;28;20024;-74
2022/01/18 06:20:19;;;;;;;64.55;35.50;;;;;;;;;;5086686;28;20039;-74
2022/01/18 06:22:45;;;;;;;53.30;32.67;;;;;;;;;;5073674;28;20024;-74
2022/01/18 06:25:11;;;;;;;54.33;31.40;;;;;;;;;;5079436;28;20069;-74
2022/01/18 06:27:38;;;;;;;61.85;34.30;;;;;;;;;;5085788;28;20111;-74
2022/01/18 06:30:09;;;;;;;54.03;32.22;;;;;;;;;;5086953;28;20035;-74
2022/01/18 06:32:36;;;;;;;55.60;33.13;;;;;;;;;;5085673;28;20051;-74
2022/01/18 06:35:02;;;;;;;58.63;34.03;;;;;;;;;;5086570;28;20032;-74
2022/01/18 06:37:28;;;;;;;55.13;34.25;;;;;;;;;;5082746;28;20531;-75
2022/01/18 06:39:57;;;;;;;52.17;31.95;;;;;;;;;;5087707;28;20069;-74
2022/01/18 06:42:24;;;;;;;48.50;29.75;;;;;;;;;;5082146;28;20032;-74
2022/01/18 06:44:50;;;;;;;51.78;30.80;;;;;;;;;;5087275;28;20032;-74
2022/01/18 06:47:16;;;;;;;44.35;26.23;;;;;;;;;;5085687;28;20028;-74
2022/01/18 06:49:42;;;;;;;43.42;26.00;;;;;;;;;;5088047;28;20024;-74
2022/01/18 06:52:08;;;;;;;42.25;24.73;;;;;;;;;;5082738;28;20316;-74
2022/01/18 06:54:34;;;;;;;39.70;23.77;;;;;;;;;;5078755;28;20111;-74
2022/01/18 06:57:00;;;;;;;41.42;23.70;;;;;;;;;;5085196;28;20035;-74
2022/01/18 06:59:26;;;;;;;41.25;23.52;;;;;;;;;;5088032;28;20051;-74
2022/01/18 07:01:52;;;;;;;59.95;31.17;;;;;;;;;;5077689;28;20037;-74
2022/01/18 07:04:18;;;;;;;68.10;32.40;;;;;;;;;;5087097;28;20154;-74
2022/01/18 07:06:45;;;;;;;69.03;34.42;;;;;;;;;;5082581;28;20110;-74
2022/01/18 07:09:12;;;;;;;67.47;36.13;;;;;;;;;;5087800;28;20027;-74
2022/01/18 07:11:38;;;;;;;89.82;45.42;;;;;;;;;;5081078;28;20036;-74
2022/01/18 07:14:04;;;;;;;73.82;40.58;;;;;;;;;;5083886;28;20194;-75
2022/01/18 07:16:30;;;;;;;95.45;52.20;;;;;;;;;;5091312;28;20094;-74
2022/01/18 07:18:56;;;;;;;81.93;44.78;;;;;;;;;;5091923;28;20051;-74
2022/01/18 07:21:22;;;;;;;88.95;44.63;;;;;;;;;;5086702;28;20028;-75
2022/01/18 07:23:51;;;;;;;97.68;47.72;;;;;;;;;;5087762;28;20107;-74
2022/01/18 07:26:17;;;;;;;92.40;47.92;;;;;;;;;;5091819;28;20827;-74
2022/01/18 07:28:43;;;;;;;84.35;46.88;;;;;;;;;;5092061;28;20036;-74
2022/01/18 07:31:09;;;;;;;76.43;44.00;;;;;;;;;;5090338;28;20039;-74
2022/01/18 07:33:39;;;;;;;66.78;40.97;;;;;;;;;;5087056;28;20036;-74
2022/01/18 07:36:05;;;;;;;61.33;37.50;;;;;;;;;;5088332;28;20024;-74
2022/01/18 07:38:31;;;;;;;55.40;34.22;;;;;;;;;;5082657;28;20024;-74
2022/01/18 07:40:58;;;;;;;64.10;37.60;;;;;;;;;;5081085;28;20036;-74
2022/01/18 07:43:24;;;;;;;60.75;34.75;;;;;;;;;;5091385;28;20121;-74
2022/01/18 07:45:50;;;;;;;64.13;38.85;;;;;;;;;;5091004;28;20063;-74
2022/01/18 07:48:21;;;;;;;77.55;49.85;;;;;;;;;;5084797;28;20067;-75
2022/01/18 07:50:47;;;;;;;67.53;45.65;;;;;;;;;;5084751;28;20028;-74
2022/01/18 07:53:13;;;;;;;65.35;39.13;;;;;;;;;;5085344;28;20115;-74
2022/01/18 07:55:39;;;;;;;64.97;38.40;;;;;;;;;;5089446;28;20060;-74
2022/01/18 07:58:05;;;;;;;59.05;34.90;;;;;;;;;;5090694;28;20485;-74
2022/01/18 08:00:31;;;;;;;46.67;27.65;;;;;;;;;;5090592;28;20028;-74
2022/01/18 08:02:57;;;;;;;44.17;26.85;;;;;;;;;;5079947;28;20568;-75
2022/01/18 08:05:23;;;;;;;46.03;28.58;;;;;;;;;;5088351;28;20028;-74
2022/01/18 08:07:49;;;;;;;51.03;28.48;;;;;;;;;;5086255;28;20044;-74
2022/01/18 08:10:18;;;;;;;38.33;23.10;;;;;;;;;;5083786;28;20036;-74
2022/01/18 08:12:45;;;;;;;39.58;22.30;;;;;;;;;;5086775;28;20039;-74
2022/01/18 08:15:22;;;;;;;44.88;26.27;;;;;;;;;;5084987;28;20183;-74
2022/01/18 08:17:50;;;;;;;70.35;39.45;;;;;;;;;;5088863;28;20035;-74
2022/01/18 08:20:16;;;;;;;77.78;43.00;;;;;;;;;;5088079;28;20104;-74
2022/01/18 08:22:46;;;;;;;100.47;55.35;;;;;;;;;;5089936;28;20043;-74
2022/01/18 08:25:13;;;;;;;108.63;57.63;;;;;;;;;;5088773;28;20470;-74
2022/01/18 08:27:40;;;;;;;74.63;44.13;;;;;;;;;;5090089;28;20059;-74
2022/01/18 08:30:07;;;;;;;67.80;39.05;;;;;;;;;;5090200;28;20043;-74
2022/01/18 08:32:33;;;;;;;63.45;38.53;;;;;;;;;;5089326;28;20110;-74
2022/01/18 08:34:59;;;;;;;83.43;49.85;;;;;;;;;;5090422;28;20154;-75
2022/01/18 08:37:25;;;;;;;78.05;46.03;;;;;;;;;;5085553;28;20585;-74
2022/01/18 08:39:51;;;;;;;70.22;44.30;;;;;;;;;;5086664;28;20689;-74
2022/01/18 08:42:17;;;;;;;66.30;38.10;;;;;;;;;;5079969;28;20060;-74
2022/01/18 08:44:43;;;;;;;61.17;37.85;;;;;;;;;;5087694;28;20081;-74
2022/01/18 08:47:19;;;;;;;64.13;39.00;;;;;;;;;;5084554;28;20056;-74
2022/01/18 08:49:45;;;;;;;61.38;33.00;;;;;;;;;;5084410;28;20099;-73
2022/01/18 08:52:12;;;;;;;62.63;36.88;;;;;;;;;;5085888;28;20064;-72
2022/01/18 08:54:39;;;;;;;53.47;33.75;;;;;;;;;;5085053;28;20137;-73
2022/01/18 08:57:05;;;;;;;54.88;31.80;;;;;;;;;;5084952;28;20549;-74
2022/01/18 08:59:35;;;;;;;42.78;26.02;;;;;;;;;;5087277;28;20078;-74
2022/01/18 09:02:01;;;;;;;39.50;22.50;;;;;;;;;;5087304;28;20081;-74
2022/01/18 09:04:30;;;;;;;34.25;21.80;;;;;;;;;;5086183;28;20036;-75
2022/01/18 09:06:57;;;;;;;34.33;18.95;;;;;;;;;;5086900;28;20035;-74
2022/01/18 09:09:26;;;;;;;31.50;17.15;;;;;;;;;;5084474;28;20024;-75
2022/01/18 09:11:52;;;;;;;28.90;17.70;;;;;;;;;;5088027;28;20028;-75
2022/01/18 09:14:18;;;;;;;32.22;19.83;;;;;;;;;;5088686;28;20020;-74
2022/01/18 09:16:44;;;;;;;39.72;24.88;;;;;;;;;;5081059;28;20388;-74
2022/01/18 09:19:10;;;;;;;42.03;29.17;;;;;;;;;;5085231;28;20035;-74
2022/01/18 09:21:36;;;;;;;51.65;32.35;;;;;;;;;;5088329;28;20031;-74
2022/01/18 09:24:02;;;;;;;52.42;32.70;;;;;;;;;;5088606;28;20039;-74
2022/01/18 09:26:28;;;;;;;56.67;35.08;;;;;;;;;;5081642;28;20036;-74
2022/01/18 09:28:54;;;;;;;56.65;34.90;;;;;;;;;;5082310;28;20039;-75
2022/01/18 09:31:21;;;;;;;56.60;37.42;;;;;;;;;;5088399;28;20039;-72
2022/01/18 09:33:47;;;;;;;61.13;36.83;;;;;;;;;;5078363;28;20116;-72
2022/01/18 09:36:13;;;;;;;61.03;38.13;;;;;;;;;;5087535;28;20038;-75
2022/01/18 09:38:39;;;;;;;60.92;35.55;;;;;;;;;;5088308;28;20040;-72
2022/01/18 09:41:10;;;;;;;56.72;35.05;;;;;;;;;;5084938;28;20024;-72
2022/01/18 09:43:38;;;;;;;56.85;33.42;;;;;;;;;;5080773;28;20036;-73
2022/01/18 09:46:04;;;;;;;57.63;33.90;;;;;;;;;;5077941;28;20035;-72
2022/01/18 09:48:30;;;;;;;60.97;37.13;;;;;;;;;;5085634;28;20032;-75
2022/01/18 09:50:56;;;;;;;65.38;37.45;;;;;;;;;;5085751;28;20035;-73
2022/01/18 09:53:22;;;;;;;74.53;39.78;;;;;;;;;;5086286;28;20127;-73
2022/01/18 09:55:50;;;;;;;72.05;42.47;;;;;;;;;;5085005;28;20024;-75
2022/01/18 09:58:16;;;;;;;62.40;37.58;;;;;;;;;;5083206;28;20059;-74
2022/01/18 10:00:43;;;;;;;62.38;34.53;;;;;;;;;;5085207;28;20039;-74
2022/01/18 10:03:28;;;;;;;56.58;32.67;;;;;;;;;;5087098;28;20561;-74
2022/01/18 10:05:55;;;;;;;52.40;30.70;;;;;;;;;;5087624;28;20059;-74
2022/01/18 10:08:21;;;;;;;49.33;30.77;;;;;;;;;;5086515;28;20073;-75
2022/01/18 10:10:58;;;;;;;60.53;32.35;;;;;;;;;;5087348;28;20028;-74
2022/01/18 10:13:34;;;;;;;53.70;32.17;;;;;;;;;;5084397;28;20035;-74
2022/01/18 10:16:03;;;;;;;50.70;30.15;;;;;;;;;;5081470;28;20024;-74
2022/01/18 10:19:03;;;;;;;61.45;33.70;;;;;;;;;;5084709;28;20024;-74
2022/01/18 10:21:31;;;;;;;62.80;35.20;;;;;;;;;;5072721;28;20784;-74
2022/01/18 10:24:12;;;;;;;51.83;31.33;;;;;;;;;;5085588;28;20028;-74
2022/01/18 10:26:43;;;;;;;48.33;29.42;;;;;;;;;;5079356;28;20038;-74
2022/01/18 10:29:09;;;;;;;41.75;24.80;;;;;;;;;;5087085;28;20115;-73
2022/01/18 10:36:59;;;;;;;36.72;21.02;;;;;;;;;;5084182;28;20048;-72
2022/01/18 10:39:27;;;;;;;36.58;21.85;;;;;;;;;;5083835;28;20139;-74
2022/01/18 10:41:53;;;;;;;34.13;21.88;;;;;;;;;;5087933;28;20536;-72
2022/01/18 10:44:20;;;;;;;30.42;20.42;;;;;;;;;;5087110;28;20072;-72
2022/01/18 10:46:51;;;;;;;37.88;21.95;;;;;;;;;;5081422;28;20039;-72
2022/01/18 10:49:26;;;;;;;34.77;23.53;;;;;;;;;;5088292;28;20032;-72
2022/01/18 10:52:00;;;;;;;39.17;25.77;;;;;;;;;;5091943;28;20032;-72
2022/01/18 10:54:40;;;;;;;30.95;23.48;;;;;;;;;;5092346;28;20024;-72
2022/01/18 10:57:07;;;;;;;33.13;23.50;;;;;;;;;;5089317;28;20058;-75
2022/01/18 10:59:34;;;;;;;34.15;21.85;;;;;;;;;;5090876;28;20048;-75
2022/01/18 11:02:10;;;;;;;38.42;22.25;;;;;;;;;;5088964;28;20798;-74
2022/01/18 11:04:36;;;;;;;38.28;22.33;;;;;;;;;;5090957;28;20471;-75
2022/01/18 11:07:04;;;;;;;32.08;20.75;;;;;;;;;;5089992;28;20036;-75
2022/01/18 11:09:30;;;;;;;29.77;19.10;;;;;;;;;;5086701;28;20024;-74
2022/01/18 11:11:56;;;;;;;30.75;19.40;;;;;;;;;;5089550;28;20288;-74
2022/01/18 11:14:24;;;;;;;29.45;18.30;;;;;;;;;;5090341;28;20040;-74
2022/01/18 11:16:51;;;;;;;26.83;16.40;;;;;;;;;;5090777;28;20028;-72
2022/01/18 11:21:52;;;;;;;22.80;15.10;;;;;;;;;;5090683;28;20089;-75
2022/01/18 11:24:19;;;;;;;22.67;14.63;;;;;;;;;;5078453;28;20032;-75
2022/01/18 11:26:45;;;;;;;25.45;16.38;;;;;;;;;;5086447;28;20039;-75
2022/01/18 11:29:13;;;;;;;27.63;15.88;;;;;;;;;;5089607;28;20367;-74
2022/01/18 11:31:40;;;;;;;24.48;15.50;;;;;;;;;;5087860;28;20040;-74
2022/01/18 11:34:08;;;;;;;31.75;16.58;;;;;;;;;;5089277;28;20036;-74
2022/01/18 11:36:38;;;;;;;24.85;16.10;;;;;;;;;;5091238;28;20024;-74
2022/01/18 11:39:06;;;;;;;25.95;16.02;;;;;;;;;;5081179;28;20474;-74
2022/01/18 11:41:35;;;;;;;24.98;16.88;;;;;;;;;;5083786;28;20031;-72
2022/01/18 11:44:31;;;;;;;25.42;18.50;;;;;;;;;;5085901;28;20043;-74
2022/01/18 11:46:57;;;;;;;27.98;19.67;;;;;;;;;;5073060;28;20677;-74
2022/01/18 11:49:24;;;;;;;27.88;18.15;;;;;;;;;;5080055;28;20189;-74
2022/01/18 11:51:54;;;;;;;24.95;17.83;;;;;;;;;;5090443;28;20059;-73
2022/01/18 11:55:06;;;;;;;27.60;17.48;;;;;;;;;;5085916;28;20028;-74
2022/01/18 11:57:22;;;;;;;26.10;17.70;;;;;;;;;;5077413;28;20033;-74
2022/01/18 11:59:49;;;;;;;23.40;15.57;;;;;;;;;;5089168;28;20093;-74
2022/01/18 12:02:28;;;;;;;25.73;16.10;;;;;;;;;;5080159;28;20025;-74
2022/01/18 12:04:56;;;;;;;27.60;18.73;;;;;;;;;;5076585;28;20042;-74
2022/01/18 12:07:36;;;;;;;26.63;18.52;;;;;;;;;;5083392;28;20024;-74
2022/01/18 12:10:05;;;;;;;26.33;17.63;;;;;;;;;;5089740;28;20024;-75
2022/01/18 12:12:45;;;;;;;27.83;19.30;;;;;;;;;;5088898;28;20035;-74
2022/01/18 12:15:22;;;;;;;25.95;18.13;;;;;;;;;;5087785;28;20023;-74
2022/01/18 12:17:58;;;;;;;27.10;19.95;;;;;;;;;;5086210;28;20111;-74
2022/01/18 12:20:37;;;;;;;27.15;18.55;;;;;;;;;;5086824;28;20030;-73
2022/01/18 12:23:06;;;;;;;31.10;18.77;;;;;;;;;;5088386;28;20036;-73
2022/01/18 12:25:35;;;;;;;26.42;16.80;;;;;;;;;;5084783;28;20113;-72
2022/01/18 12:28:21;;;;;;;26.40;16.65;;;;;;;;;;5090480;28;20024;-73
2022/01/18 12:31:04;;;;;;;23.13;15.93;;;;;;;;;;5088037;28;20063;-73
2022/01/18 12:33:43;;;;;;;24.23;16.58;;;;;;;;;;5088387;28;20099;-73
2022/01/18 12:36:31;;;;;;;27.23;18.10;;;;;;;;;;5089008;28;20039;-73
2022/01/18 12:39:01;;;;;;;26.02;16.65;;;;;;;;;;5086529;28;20024;-73
2022/01/18 12:41:40;;;;;;;24.42;17.27;;;;;;;;;;5090550;28;20032;-73
2022/01/18 12:44:22;;;;;;;26.77;18.23;;;;;;;;;;5089034;28;20111;-73
2022/01/18 12:46:51;;;;;;;28.90;19.10;;;;;;;;;;5089148;28;20047;-74
2022/01/18 12:49:18;;;;;;;26.95;19.48;;;;;;;;;;5088192;28;20514;-73
2022/01/18 12:51:44;;;;;;;28.05;18.92;;;;;;;;;;5084411;28;20039;-73
2022/01/18 12:54:10;;;;;;;27.38;18.63;;;;;;;;;;5084524;28;20417;-73
2022/01/18 12:56:36;;;;;;;23.90;17.05;;;;;;;;;;5089903;28;20028;-74
2022/01/18 12:59:04;;;;;;;22.75;15.10;;;;;;;;;;5083854;28;20506;-73
2022/01/18 13:01:31;;;;;;;23.90;16.45;;;;;;;;;;5089852;28;20496;-73
2022/01/18 13:03:57;;;;;;;23.23;15.25;;;;;;;;;;5089702;28;20064;-74
2022/01/18 13:06:24;;;;;;;21.17;14.73;;;;;;;;;;5087262;28;20123;-73
2022/01/18 13:08:55;;;;;;;23.13;15.43;;;;;;;;;;5087838;28;20040;-74
2022/01/18 13:11:24;;;;;;;24.45;17.45;;;;;;;;;;5077121;28;20020;-74
2022/01/18 13:13:59;;;;;;;21.13;14.30;;;;;;;;;;5088979;28;20493;-73
2022/01/18 13:25:14;;;;;;;24.40;15.50;;;;;;;;;;5084430;28;20051;-73
2022/01/18 13:27:31;;;;;;;23.85;15.20;;;;;;;;;;5079166;28;20044;-72
2022/01/18 13:30:09;;;;;;;21.83;14.45;;;;;;;;;;5086002;28;20038;-72
2022/01/18 13:32:36;;;;;;;21.38;12.70;;;;;;;;;;5085160;28;20033;-73
2022/01/18 13:35:05;;;;;;;22.02;13.55;;;;;;;;;;5088413;28;20055;-72
2022/01/18 13:37:33;;;;;;;19.35;12.82;;;;;;;;;;5086694;28;20043;-72
2022/01/18 13:40:02;;;;;;;19.80;12.00;;;;;;;;;;5087548;28;20060;-72
2022/01/18 13:42:34;;;;;;;16.98;11.77;;;;;;;;;;5087855;28;20124;-72
2022/01/18 13:45:06;;;;;;;18.92;11.32;;;;;;;;;;5087671;28;20039;-72
2022/01/18 13:47:39;;;;;;;17.35;10.95;;;;;;;;;;5081577;28;20040;-72
2022/01/18 13:50:05;;;;;;;17.92;11.05;;;;;;;;;;5083045;28;20031;-72
2022/01/18 13:52:32;;;;;;;18.95;11.35;;;;;;;;;;5086121;28;20040;-72
2022/01/18 13:54:58;;;;;;;21.60;13.45;;;;;;;;;;5081576;28;20055;-72
2022/01/18 13:57:24;;;;;;;20.35;12.05;;;;;;;;;;5087671;28;20070;-72
2022/01/18 13:59:51;;;;;;;19.70;12.40;;;;;;;;;;5088587;28;20056;-73
2022/01/18 14:02:22;;;;;;;19.42;12.95;;;;;;;;;;5084780;28;20035;-72
2022/01/18 14:05:05;;;;;;;20.10;13.15;;;;;;;;;;5081253;28;20037;-72
2022/01/18 14:07:31;;;;;;;22.92;13.85;;;;;;;;;;5085330;28;20036;-73
2022/01/18 14:09:58;;;;;;;23.60;13.80;;;;;;;;;;5083383;28;20102;-72
2022/01/18 14:12:29;;;;;;;36.03;21.17;;;;;;;;;;5086486;28;20039;-72
2022/01/18 14:14:55;;;;;;;51.97;29.60;;;;;;;;;;5084841;28;20040;-72
2022/01/18 14:17:21;;;;;;;55.60;31.73;;;;;;;;;;5080512;28;20070;-72
2022/01/18 14:19:48;;;;;;;49.65;27.10;;;;;;;;;;5083978;28;20028;-72
2022/01/18 14:22:26;;;;;;;40.58;22.63;;;;;;;;;;5087851;28;20032;-72
2022/01/18 14:24:57;;;;;;;31.15;19.48;;;;;;;;;;5081970;28;20102;-73
2022/01/18 14:27:31;;;;;;;29.40;17.48;;;;;;;;;;5087202;28;20024;-73
2022/01/18 14:30:05;;;;;;;25.95;14.68;;;;;;;;;;5092392;28;20031;-73
2022/01/18 14:32:41;;;;;;;25.20;13.13;;;;;;;;;;5085361;28;20471;-72
2022/01/18 14:35:21;;;;;;;19.20;12.25;;;;;;;;;;5087639;28;20043;-73
2022/01/18 14:37:49;;;;;;;29.35;16.63;;;;;;;;;;5090169;28;20417;-72
2022/01/18 14:40:16;;;;;;;39.88;22.15;;;;;;;;;;5089623;28;20039;-73
2022/01/18 14:42:49;;;;;;;34.17;20.70;;;;;;;;;;5091227;28;20108;-73
2022/01/18 14:47:43;;;;;;;37.08;20.08;;;;;;;;;;5089720;28;20025;-72
2022/01/18 14:50:13;;;;;;;29.60;17.08;;;;;;;;;;5087907;28;20041;-73
2022/01/18 14:52:39;;;;;;;27.90;15.43;;;;;;;;;;5087323;28;20040;-72
2022/01/18 14:55:06;;;;;;;30.63;16.33;;;;;;;;;;5082545;28;20028;-72
2022/01/18 14:57:32;;;;;;;25.65;14.90;;;;;;;;;;5089490;28;20032;-73
2022/01/18 14:59:59;;;;;;;22.92;13.10;;;;;;;;;;5091791;28;20048;-72
2022/01/18 15:02:25;;;;;;;21.33;13.18;;;;;;;;;;5086493;28;20134;-72
2022/01/18 15:04:51;;;;;;;23.30;14.55;;;;;;;;;;5092124;28;20078;-72
2022/01/18 15:07:17;;;;;;;26.80;16.95;;;;;;;;;;5091247;28;20028;-73
2022/01/18 15:09:44;;;;;;;24.45;15.80;;;;;;;;;;5083812;28;20512;-73
2022/01/18 15:12:10;;;;;;;26.65;18.15;;;;;;;;;;5086403;28;20059;-73
2022/01/18 15:14:36;;;;;;;30.40;18.80;;;;;;;;;;5091702;28;20039;-73
2022/01/18 15:17:02;;;;;;;33.70;22.95;;;;;;;;;;5092342;28;20103;-73
2022/01/18 15:19:28;;;;;;;32.75;22.00;;;;;;;;;;5089841;28;20031;-72
2022/01/18 15:21:54;;;;;;;37.25;26.13;;;;;;;;;;5092192;28;20097;-73
2022/01/18 15:24:21;;;;;;;41.60;27.92;;;;;;;;;;5087470;28;20055;-73
2022/01/18 15:26:49;;;;;;;44.92;30.05;;;;;;;;;;5091558;28;20031;-73
2022/01/18 15:29:15;;;;;;;39.05;28.25;;;;;;;;;;5091138;28;20116;-73
2022/01/18 15:31:41;;;;;;;38.42;26.95;;;;;;;;;;5091476;28;20117;-73
2022/01/18 15:34:07;;;;;;;37.92;24.67;;;;;;;;;;5086997;28;20039;-73
2022/01/18 15:36:33;;;;;;;37.75;25.73;;;;;;;;;;5091543;28;20085;-73
2022/01/18 15:38:59;;;;;;;36.03;24.00;;;;;;;;;;5091069;28;20040;-73
2022/01/18 15:41:25;;;;;;;43.33;28.13;;;;;;;;;;5089923;28;20024;-72
2022/01/18 15:43:51;;;;;;;41.92;28.65;;;;;;;;;;5086834;28;20040;-72
2022/01/18 15:46:17;;;;;;;44.38;27.92;;;;;;;;;;5086167;28;20024;-72
2022/01/18 15:48:43;;;;;;;40.00;27.17;;;;;;;;;;5089048;28;20063;-72
2022/01/18 15:51:09;;;;;;;38.88;27.20;;;;;;;;;;5089621;28;20036;-73